sensor_id;sensor_type;location;lat;lon;timestamp;P1;durP1;ratioP1;P2;durP2;ratioP2
11386;SDS011;5748;53.102;8.456;2022-12-29T00:01:32;2.33;;;2.20;;
11386;SDS011;5748;53.102;8.456;2022-12-29T00:04:01;2.60;;;2.40;;
11386;SDS011;5748;53.102;8.456;2022-12-29T00:06:28;2.40;;;2.20;;
11386;SDS011;5748;53.102;8.456;2022-12-29T00:08:55;2.70;;;2.50;;
11386;SDS011;5748;53.102;8.456;2022-12-29T00:11:24;2.60;;;2.40;;
11386;SDS011;5748;53.102;8.456;2022-12-29T00:13:53;2.40;;;2.20;;
11386;SDS011;5748;53.102;8.456;2022-12-29T00:16:40;2.10;;;1.97;;
11386;SDS011;5748;53.102;8.456;2022-12-29T00:19:09;2.30;;;2.10;;
11386;SDS011;5748;53.102;8.456;2022-12-29T00:21:51;2.40;;;2.23;;
11386;SDS011;5748;53.102;8.456;2022-12-29T00:24:42;2.17;;;2.03;;
11386;SDS011;5748;53.102;8.456;2022-12-29T00:27:28;2.40;;;2.20;;
11386;SDS011;5748;53.102;8.456;2022-12-29T00:30:16;2.50;;;2.30;;
11386;SDS011;5748;53.102;8.456;2022-12-29T00:33:07;2.60;;;2.40;;
11386;SDS011;5748;53.102;8.456;2022-12-29T00:35:50;2.70;;;2.50;;
11386;SDS011;5748;53.102;8.456;2022-12-29T00:38:22;2.37;;;2.23;;
11386;SDS011;5748;53.102;8.456;2022-12-29T00:41:06;2.80;;;2.60;;
11386;SDS011;5748;53.102;8.456;2022-12-29T00:44:02;2.90;;;2.70;;
11386;SDS011;5748;53.102;8.456;2022-12-29T00:46:35;2.53;;;2.33;;
11386;SDS011;5748;53.102;8.456;2022-12-29T00:49:04;2.60;;;2.40;;
11386;SDS011;5748;53.102;8.456;2022-12-29T00:51:49;2.90;;;2.70;;
11386;SDS011;5748;53.102;8.456;2022-12-29T00:57:04;2.90;;;2.70;;
11386;SDS011;5748;53.102;8.456;2022-12-29T00:59:35;3.13;;;2.93;;
11386;SDS011;5748;53.102;8.456;2022-12-29T01:02:03;3.13;;;2.93;;
11386;SDS011;5748;53.102;8.456;2022-12-29T01:04:31;2.80;;;2.60;;
11386;SDS011;5748;53.102;8.456;2022-12-29T01:06:58;3.03;;;2.50;;
11386;SDS011;5748;53.102;8.456;2022-12-29T01:09:26;2.80;;;2.60;;
11386;SDS011;5748;53.102;8.456;2022-12-29T01:12:10;2.83;;;2.63;;
11386;SDS011;5748;53.102;8.456;2022-12-29T01:14:44;2.97;;;2.77;;
11386;SDS011;5748;53.102;8.456;2022-12-29T01:17:11;2.67;;;2.47;;
11386;SDS011;5748;53.102;8.456;2022-12-29T01:19:38;2.90;;;2.70;;
11386;SDS011;5748;53.102;8.456;2022-12-29T01:22:05;3.03;;;2.83;;
11386;SDS011;5748;53.102;8.456;2022-12-29T01:24:33;2.93;;;2.73;;
11386;SDS011;5748;53.102;8.456;2022-12-29T01:27:00;2.50;;;2.30;;
11386;SDS011;5748;53.102;8.456;2022-12-29T01:29:27;2.43;;;2.23;;
11386;SDS011;5748;53.102;8.456;2022-12-29T01:34:42;2.40;;;2.20;;
11386;SDS011;5748;53.102;8.456;2022-12-29T01:37:09;2.30;;;2.20;;
11386;SDS011;5748;53.102;8.456;2022-12-29T01:39:36;2.40;;;2.20;;
11386;SDS011;5748;53.102;8.456;2022-12-29T01:44:53;2.40;;;2.20;;
11386;SDS011;5748;53.102;8.456;2022-12-29T01:47:28;2.40;;;2.20;;
11386;SDS011;5748;53.102;8.456;2022-12-29T01:50:01;2.13;;;2.03;;
11386;SDS011;5748;53.102;8.456;2022-12-29T01:52:33;2.37;;;2.17;;
11386;SDS011;5748;53.102;8.456;2022-12-29T01:55:04;2.00;;;1.90;;
11386;SDS011;5748;53.102;8.456;2022-12-29T01:57:33;2.00;;;1.90;;
11386;SDS011;5748;53.102;8.456;2022-12-29T02:00:04;1.90;;;1.80;;
11386;SDS011;5748;53.102;8.456;2022-12-29T02:02:35;2.40;;;2.20;;
11386;SDS011;5748;53.102;8.456;2022-12-29T02:05:05;2.57;;;2.37;;
11386;SDS011;5748;53.102;8.456;2022-12-29T02:07:36;2.30;;;2.10;;
11386;SDS011;5748;53.102;8.456;2022-12-29T02:10:04;2.50;;;2.30;;
11386;SDS011;5748;53.102;8.456;2022-12-29T02:12:33;2.30;;;2.10;;
11386;SDS011;5748;53.102;8.456;2022-12-29T02:15:00;2.20;;;2.00;;
11386;SDS011;5748;53.102;8.456;2022-12-29T02:17:34;2.40;;;2.20;;
11386;SDS011;5748;53.102;8.456;2022-12-29T02:20:37;2.00;;;1.90;;
11386;SDS011;5748;53.102;8.456;2022-12-29T02:23:36;1.80;;;1.70;;
11386;SDS011;5748;53.102;8.456;2022-12-29T02:26:50;2.00;;;1.90;;
11386;SDS011;5748;53.102;8.456;2022-12-29T02:30:02;1.70;;;1.60;;
11386;SDS011;5748;53.102;8.456;2022-12-29T02:32:58;2.00;;;1.90;;
11386;SDS011;5748;53.102;8.456;2022-12-29T02:35:34;1.77;;;1.67;;
11386;SDS011;5748;53.102;8.456;2022-12-29T02:38:13;1.70;;;1.60;;
11386;SDS011;5748;53.102;8.456;2022-12-29T02:40:58;1.80;;;1.70;;
11386;SDS011;5748;53.102;8.456;2022-12-29T02:43:34;2.20;;;2.00;;
11386;SDS011;5748;53.102;8.456;2022-12-29T02:46:10;1.60;;;1.50;;
11386;SDS011;5748;53.102;8.456;2022-12-29T02:48:47;2.10;;;1.90;;
11386;SDS011;5748;53.102;8.456;2022-12-29T02:51:23;1.90;;;1.80;;
11386;SDS011;5748;53.102;8.456;2022-12-29T02:53:54;1.77;;;1.67;;
11386;SDS011;5748;53.102;8.456;2022-12-29T02:56:40;1.67;;;1.57;;
11386;SDS011;5748;53.102;8.456;2022-12-29T02:59:07;2.03;;;1.90;;
11386;SDS011;5748;53.102;8.456;2022-12-29T03:01:39;2.00;;;1.90;;
11386;SDS011;5748;53.102;8.456;2022-12-29T03:04:53;1.83;;;1.73;;
11386;SDS011;5748;53.102;8.456;2022-12-29T03:07:39;1.80;;;1.70;;
11386;SDS011;5748;53.102;8.456;2022-12-29T03:10:19;2.10;;;2.00;;
11386;SDS011;5748;53.102;8.456;2022-12-29T03:13:02;2.50;;;2.30;;
11386;SDS011;5748;53.102;8.456;2022-12-29T03:15:55;1.90;;;1.80;;
11386;SDS011;5748;53.102;8.456;2022-12-29T03:18:38;1.97;;;1.87;;
11386;SDS011;5748;53.102;8.456;2022-12-29T03:21:15;2.03;;;1.93;;
11386;SDS011;5748;53.102;8.456;2022-12-29T03:24:11;2.27;;;2.10;;
11386;SDS011;5748;53.102;8.456;2022-12-29T03:26:45;2.00;;;1.90;;
11386;SDS011;5748;53.102;8.456;2022-12-29T03:29:15;1.80;;;1.70;;
11386;SDS011;5748;53.102;8.456;2022-12-29T03:31:44;1.60;;;1.50;;
11386;SDS011;5748;53.102;8.456;2022-12-29T03:34:13;1.60;;;1.50;;
11386;SDS011;5748;53.102;8.456;2022-12-29T03:36:47;1.60;;;1.50;;
11386;SDS011;5748;53.102;8.456;2022-12-29T03:39:18;1.50;;;1.40;;
11386;SDS011;5748;53.102;8.456;2022-12-29T03:41:48;1.70;;;1.60;;
11386;SDS011;5748;53.102;8.456;2022-12-29T03:44:21;1.30;;;1.20;;
11386;SDS011;5748;53.102;8.456;2022-12-29T03:46:58;1.20;;;1.20;;
11386;SDS011;5748;53.102;8.456;2022-12-29T03:49:25;1.17;;;1.17;;
11386;SDS011;5748;53.102;8.456;2022-12-29T03:51:54;1.40;;;1.30;;
11386;SDS011;5748;53.102;8.456;2022-12-29T03:54:21;1.40;;;1.30;;
11386;SDS011;5748;53.102;8.456;2022-12-29T03:56:48;1.60;;;1.50;;
11386;SDS011;5748;53.102;8.456;2022-12-29T03:59:15;1.43;;;1.33;;
11386;SDS011;5748;53.102;8.456;2022-12-29T04:01:43;1.40;;;1.30;;
11386;SDS011;5748;53.102;8.456;2022-12-29T04:07:09;1.60;;;1.50;;
11386;SDS011;5748;53.102;8.456;2022-12-29T04:09:36;1.50;;;1.40;;
11386;SDS011;5748;53.102;8.456;2022-12-29T04:12:03;1.40;;;1.30;;
11386;SDS011;5748;53.102;8.456;2022-12-29T04:14:30;1.50;;;1.40;;
11386;SDS011;5748;53.102;8.456;2022-12-29T04:16:57;1.73;;;1.63;;
11386;SDS011;5748;53.102;8.456;2022-12-29T04:19:24;1.50;;;1.40;;
11386;SDS011;5748;53.102;8.456;2022-12-29T04:21:51;1.50;;;1.40;;
11386;SDS011;5748;53.102;8.456;2022-12-29T04:24:20;1.60;;;1.50;;
11386;SDS011;5748;53.102;8.456;2022-12-29T04:26:47;1.40;;;1.30;;
11386;SDS011;5748;53.102;8.456;2022-12-29T04:29:14;1.50;;;1.40;;
11386;SDS011;5748;53.102;8.456;2022-12-29T04:31:41;1.50;;;1.40;;
11386;SDS011;5748;53.102;8.456;2022-12-29T04:34:08;1.30;;;1.20;;
11386;SDS011;5748;53.102;8.456;2022-12-29T04:36:35;1.20;;;1.20;;
11386;SDS011;5748;53.102;8.456;2022-12-29T04:39:02;1.40;;;1.30;;
11386;SDS011;5748;53.102;8.456;2022-12-29T04:41:31;1.20;;;1.10;;
11386;SDS011;5748;53.102;8.456;2022-12-29T04:43:58;1.30;;;1.20;;
11386;SDS011;5748;53.102;8.456;2022-12-29T04:46:25;1.37;;;1.10;;
11386;SDS011;5748;53.102;8.456;2022-12-29T04:48:52;1.30;;;1.20;;
11386;SDS011;5748;53.102;8.456;2022-12-29T04:51:19;1.30;;;1.20;;
11386;SDS011;5748;53.102;8.456;2022-12-29T04:53:47;1.30;;;1.20;;
11386;SDS011;5748;53.102;8.456;2022-12-29T04:56:14;1.57;;;1.00;;
11386;SDS011;5748;53.102;8.456;2022-12-29T04:58:42;0.80;;;0.80;;
11386;SDS011;5748;53.102;8.456;2022-12-29T05:01:09;1.53;;;0.80;;
11386;SDS011;5748;53.102;8.456;2022-12-29T05:03:36;1.00;;;1.00;;
11386;SDS011;5748;53.102;8.456;2022-12-29T05:06:03;0.80;;;0.80;;
11386;SDS011;5748;53.102;8.456;2022-12-29T05:08:31;0.73;;;0.73;;
11386;SDS011;5748;53.102;8.456;2022-12-29T05:10:58;1.47;;;0.90;;
11386;SDS011;5748;53.102;8.456;2022-12-29T05:13:25;0.60;;;0.60;;
11386;SDS011;5748;53.102;8.456;2022-12-29T05:16:02;0.70;;;0.67;;
11386;SDS011;5748;53.102;8.456;2022-12-29T05:18:29;0.67;;;0.67;;
11386;SDS011;5748;53.102;8.456;2022-12-29T05:20:57;0.60;;;0.60;;
11386;SDS011;5748;53.102;8.456;2022-12-29T05:23:24;1.13;;;0.70;;
11386;SDS011;5748;53.102;8.456;2022-12-29T05:25:51;0.70;;;0.70;;
11386;SDS011;5748;53.102;8.456;2022-12-29T05:28:18;0.57;;;0.57;;
11386;SDS011;5748;53.102;8.456;2022-12-29T05:30:47;0.60;;;0.60;;
11386;SDS011;5748;53.102;8.456;2022-12-29T05:33:16;0.50;;;0.50;;
11386;SDS011;5748;53.102;8.456;2022-12-29T05:35:44;0.70;;;0.50;;
11386;SDS011;5748;53.102;8.456;2022-12-29T05:38:11;0.70;;;0.50;;
11386;SDS011;5748;53.102;8.456;2022-12-29T05:40:47;0.70;;;0.50;;
11386;SDS011;5748;53.102;8.456;2022-12-29T05:43:14;0.97;;;0.60;;
11386;SDS011;5748;53.102;8.456;2022-12-29T05:45:41;0.50;;;0.50;;
11386;SDS011;5748;53.102;8.456;2022-12-29T05:48:08;0.47;;;0.47;;
11386;SDS011;5748;53.102;8.456;2022-12-29T05:50:37;0.50;;;0.50;;
11386;SDS011;5748;53.102;8.456;2022-12-29T05:53:03;0.70;;;0.50;;
11386;SDS011;5748;53.102;8.456;2022-12-29T05:55:30;0.57;;;0.53;;
11386;SDS011;5748;53.102;8.456;2022-12-29T05:57:57;0.50;;;0.50;;
11386;SDS011;5748;53.102;8.456;2022-12-29T06:00:24;0.50;;;0.50;;
11386;SDS011;5748;53.102;8.456;2022-12-29T06:03:04;0.50;;;0.50;;
11386;SDS011;5748;53.102;8.456;2022-12-29T06:05:31;0.60;;;0.60;;
11386;SDS011;5748;53.102;8.456;2022-12-29T06:08:00;0.93;;;0.60;;
11386;SDS011;5748;53.102;8.456;2022-12-29T06:10:27;0.97;;;0.73;;
11386;SDS011;5748;53.102;8.456;2022-12-29T06:12:54;0.70;;;0.70;;
11386;SDS011;5748;53.102;8.456;2022-12-29T06:15:24;0.70;;;0.70;;
11386;SDS011;5748;53.102;8.456;2022-12-29T06:17:52;0.60;;;0.60;;
11386;SDS011;5748;53.102;8.456;2022-12-29T06:20:19;1.30;;;0.70;;
11386;SDS011;5748;53.102;8.456;2022-12-29T06:22:45;0.60;;;0.60;;
11386;SDS011;5748;53.102;8.456;2022-12-29T06:25:14;0.93;;;0.70;;
11386;SDS011;5748;53.102;8.456;2022-12-29T06:27:42;0.90;;;0.70;;
11386;SDS011;5748;53.102;8.456;2022-12-29T06:30:10;0.50;;;0.50;;
11386;SDS011;5748;53.102;8.456;2022-12-29T06:32:39;0.60;;;0.57;;
11386;SDS011;5748;53.102;8.456;2022-12-29T06:35:07;0.60;;;0.60;;
11386;SDS011;5748;53.102;8.456;2022-12-29T06:37:34;0.60;;;0.60;;
11386;SDS011;5748;53.102;8.456;2022-12-29T06:40:02;0.73;;;0.60;;
11386;SDS011;5748;53.102;8.456;2022-12-29T06:42:31;0.60;;;0.60;;
11386;SDS011;5748;53.102;8.456;2022-12-29T06:44:58;0.80;;;0.70;;
11386;SDS011;5748;53.102;8.456;2022-12-29T06:47:25;0.70;;;0.70;;
11386;SDS011;5748;53.102;8.456;2022-12-29T06:49:52;0.87;;;0.77;;
11386;SDS011;5748;53.102;8.456;2022-12-29T06:52:19;0.70;;;0.70;;
11386;SDS011;5748;53.102;8.456;2022-12-29T06:54:48;0.67;;;0.67;;
11386;SDS011;5748;53.102;8.456;2022-12-29T06:57:16;1.10;;;0.80;;
11386;SDS011;5748;53.102;8.456;2022-12-29T06:59:44;0.70;;;0.70;;
11386;SDS011;5748;53.102;8.456;2022-12-29T07:02:11;0.60;;;0.60;;
11386;SDS011;5748;53.102;8.456;2022-12-29T07:04:39;0.70;;;0.70;;
11386;SDS011;5748;53.102;8.456;2022-12-29T07:07:06;0.87;;;0.60;;
11386;SDS011;5748;53.102;8.456;2022-12-29T07:09:33;0.70;;;0.70;;
11386;SDS011;5748;53.102;8.456;2022-12-29T07:12:00;0.93;;;0.80;;
11386;SDS011;5748;53.102;8.456;2022-12-29T07:14:27;0.80;;;0.80;;
11386;SDS011;5748;53.102;8.456;2022-12-29T07:16:56;1.57;;;0.80;;
11386;SDS011;5748;53.102;8.456;2022-12-29T07:19:23;1.23;;;0.70;;
11386;SDS011;5748;53.102;8.456;2022-12-29T07:21:50;0.60;;;0.60;;
11386;SDS011;5748;53.102;8.456;2022-12-29T07:24:18;0.70;;;0.70;;
11386;SDS011;5748;53.102;8.456;2022-12-29T07:26:45;0.63;;;0.60;;
11386;SDS011;5748;53.102;8.456;2022-12-29T07:29:12;0.70;;;0.60;;
11386;SDS011;5748;53.102;8.456;2022-12-29T07:31:38;1.10;;;0.80;;
11386;SDS011;5748;53.102;8.456;2022-12-29T07:34:08;0.97;;;0.80;;
11386;SDS011;5748;53.102;8.456;2022-12-29T07:36:35;0.70;;;0.70;;
11386;SDS011;5748;53.102;8.456;2022-12-29T07:39:02;1.80;;;0.93;;
11386;SDS011;5748;53.102;8.456;2022-12-29T07:41:36;1.00;;;0.70;;
11386;SDS011;5748;53.102;8.456;2022-12-29T07:44:03;1.00;;;0.90;;
11386;SDS011;5748;53.102;8.456;2022-12-29T07:46:31;0.80;;;0.80;;
11386;SDS011;5748;53.102;8.456;2022-12-29T07:48:58;1.20;;;0.80;;
11386;SDS011;5748;53.102;8.456;2022-12-29T07:51:26;0.80;;;0.70;;
11386;SDS011;5748;53.102;8.456;2022-12-29T07:53:53;1.10;;;0.73;;
11386;SDS011;5748;53.102;8.456;2022-12-29T07:56:39;1.10;;;0.80;;
11386;SDS011;5748;53.102;8.456;2022-12-29T07:59:06;1.77;;;0.93;;
11386;SDS011;5748;53.102;8.456;2022-12-29T08:01:33;0.70;;;0.50;;
11386;SDS011;5748;53.102;8.456;2022-12-29T08:04:00;0.80;;;0.77;;
11386;SDS011;5748;53.102;8.456;2022-12-29T08:06:29;1.00;;;0.90;;
11386;SDS011;5748;53.102;8.456;2022-12-29T08:08:56;1.53;;;0.80;;
11386;SDS011;5748;53.102;8.456;2022-12-29T08:11:25;0.93;;;0.70;;
11386;SDS011;5748;53.102;8.456;2022-12-29T08:13:52;1.40;;;0.80;;
11386;SDS011;5748;53.102;8.456;2022-12-29T08:16:19;1.17;;;0.70;;
11386;SDS011;5748;53.102;8.456;2022-12-29T08:18:46;1.47;;;0.90;;
11386;SDS011;5748;53.102;8.456;2022-12-29T08:21:13;1.10;;;0.80;;
11386;SDS011;5748;53.102;8.456;2022-12-29T08:23:42;2.27;;;1.00;;
11386;SDS011;5748;53.102;8.456;2022-12-29T08:26:09;1.07;;;0.77;;
11386;SDS011;5748;53.102;8.456;2022-12-29T08:28:37;1.63;;;0.80;;
11386;SDS011;5748;53.102;8.456;2022-12-29T08:31:04;1.43;;;0.73;;
11386;SDS011;5748;53.102;8.456;2022-12-29T08:33:31;1.53;;;1.00;;
11386;SDS011;5748;53.102;8.456;2022-12-29T08:35:59;1.10;;;0.70;;
11386;SDS011;5748;53.102;8.456;2022-12-29T08:38:27;1.97;;;0.87;;
11386;SDS011;5748;53.102;8.456;2022-12-29T08:40:56;1.80;;;1.00;;
11386;SDS011;5748;53.102;8.456;2022-12-29T08:43:24;0.97;;;0.80;;
11386;SDS011;5748;53.102;8.456;2022-12-29T08:45:51;1.47;;;0.63;;
11386;SDS011;5748;53.102;8.456;2022-12-29T08:48:18;1.63;;;1.00;;
11386;SDS011;5748;53.102;8.456;2022-12-29T08:50:47;2.27;;;1.07;;
11386;SDS011;5748;53.102;8.456;2022-12-29T08:53:15;1.37;;;0.80;;
11386;SDS011;5748;53.102;8.456;2022-12-29T08:55:44;1.03;;;0.90;;
11386;SDS011;5748;53.102;8.456;2022-12-29T08:58:13;1.30;;;0.90;;
11386;SDS011;5748;53.102;8.456;2022-12-29T09:00:41;1.03;;;0.93;;
11386;SDS011;5748;53.102;8.456;2022-12-29T09:03:10;1.27;;;0.80;;
11386;SDS011;5748;53.102;8.456;2022-12-29T09:05:37;1.10;;;0.90;;
11386;SDS011;5748;53.102;8.456;2022-12-29T09:08:04;1.30;;;0.90;;
11386;SDS011;5748;53.102;8.456;2022-12-29T09:10:31;1.80;;;0.80;;
11386;SDS011;5748;53.102;8.456;2022-12-29T09:12:58;1.33;;;0.83;;
11386;SDS011;5748;53.102;8.456;2022-12-29T09:15:27;1.57;;;0.80;;
11386;SDS011;5748;53.102;8.456;2022-12-29T09:17:54;0.93;;;0.63;;
11386;SDS011;5748;53.102;8.456;2022-12-29T09:20:21;1.33;;;1.00;;
11386;SDS011;5748;53.102;8.456;2022-12-29T09:22:48;1.47;;;0.80;;
11386;SDS011;5748;53.102;8.456;2022-12-29T09:25:15;0.97;;;0.70;;
11386;SDS011;5748;53.102;8.456;2022-12-29T09:27:43;1.40;;;0.80;;
11386;SDS011;5748;53.102;8.456;2022-12-29T09:30:11;1.23;;;0.80;;
11386;SDS011;5748;53.102;8.456;2022-12-29T09:32:41;2.40;;;0.97;;
11386;SDS011;5748;53.102;8.456;2022-12-29T09:35:08;0.90;;;0.73;;
11386;SDS011;5748;53.102;8.456;2022-12-29T09:37:35;1.83;;;0.87;;
11386;SDS011;5748;53.102;8.456;2022-12-29T09:40:20;1.57;;;0.90;;
11386;SDS011;5748;53.102;8.456;2022-12-29T09:43:04;1.43;;;0.80;;
11386;SDS011;5748;53.102;8.456;2022-12-29T09:45:44;1.30;;;0.80;;
11386;SDS011;5748;53.102;8.456;2022-12-29T09:48:17;1.87;;;0.90;;
11386;SDS011;5748;53.102;8.456;2022-12-29T09:50:49;1.97;;;0.97;;
11386;SDS011;5748;53.102;8.456;2022-12-29T09:53:24;1.23;;;0.87;;
11386;SDS011;5748;53.102;8.456;2022-12-29T09:55:58;1.20;;;0.80;;
11386;SDS011;5748;53.102;8.456;2022-12-29T09:58:29;1.20;;;0.90;;
11386;SDS011;5748;53.102;8.456;2022-12-29T10:01:03;1.77;;;0.83;;
11386;SDS011;5748;53.102;8.456;2022-12-29T10:03:40;1.27;;;0.80;;
11386;SDS011;5748;53.102;8.456;2022-12-29T10:06:13;1.60;;;0.80;;
11386;SDS011;5748;53.102;8.456;2022-12-29T10:08:48;1.80;;;0.97;;
11386;SDS011;5748;53.102;8.456;2022-12-29T10:11:29;1.50;;;0.70;;
11386;SDS011;5748;53.102;8.456;2022-12-29T10:14:17;1.43;;;0.90;;
11386;SDS011;5748;53.102;8.456;2022-12-29T10:19:55;1.43;;;0.80;;
11386;SDS011;5748;53.102;8.456;2022-12-29T10:22:53;1.53;;;0.77;;
11386;SDS011;5748;53.102;8.456;2022-12-29T10:25:41;0.70;;;0.70;;
11386;SDS011;5748;53.102;8.456;2022-12-29T10:28:15;0.57;;;0.50;;
11386;SDS011;5748;53.102;8.456;2022-12-29T10:33:26;0.83;;;0.70;;
11386;SDS011;5748;53.102;8.456;2022-12-29T10:36:04;1.23;;;0.73;;
11386;SDS011;5748;53.102;8.456;2022-12-29T10:38:43;1.07;;;0.50;;
11386;SDS011;5748;53.102;8.456;2022-12-29T10:41:18;1.30;;;0.80;;
11386;SDS011;5748;53.102;8.456;2022-12-29T10:43:52;0.80;;;0.50;;
11386;SDS011;5748;53.102;8.456;2022-12-29T10:46:21;0.67;;;0.60;;
11386;SDS011;5748;53.102;8.456;2022-12-29T10:48:54;0.83;;;0.60;;
11386;SDS011;5748;53.102;8.456;2022-12-29T10:51:26;0.70;;;0.70;;
11386;SDS011;5748;53.102;8.456;2022-12-29T10:53:57;0.60;;;0.60;;
11386;SDS011;5748;53.102;8.456;2022-12-29T10:56:33;1.70;;;0.77;;
11386;SDS011;5748;53.102;8.456;2022-12-29T10:59:04;2.20;;;0.80;;
11386;SDS011;5748;53.102;8.456;2022-12-29T11:01:41;1.30;;;0.90;;
11386;SDS011;5748;53.102;8.456;2022-12-29T11:04:20;0.80;;;0.70;;
11386;SDS011;5748;53.102;8.456;2022-12-29T11:07:03;0.90;;;0.60;;
11386;SDS011;5748;53.102;8.456;2022-12-29T11:09:32;0.90;;;0.70;;
11386;SDS011;5748;53.102;8.456;2022-12-29T11:12:07;2.33;;;0.90;;
11386;SDS011;5748;53.102;8.456;2022-12-29T11:14:47;1.60;;;0.80;;
11386;SDS011;5748;53.102;8.456;2022-12-29T11:17:27;1.83;;;0.90;;
11386;SDS011;5748;53.102;8.456;2022-12-29T11:22:28;2.67;;;1.20;;
11386;SDS011;5748;53.102;8.456;2022-12-29T11:24:55;1.00;;;0.77;;
11386;SDS011;5748;53.102;8.456;2022-12-29T11:27:38;1.70;;;0.90;;
11386;SDS011;5748;53.102;8.456;2022-12-29T11:30:11;1.93;;;1.00;;
11386;SDS011;5748;53.102;8.456;2022-12-29T11:32:51;1.70;;;0.87;;
11386;SDS011;5748;53.102;8.456;2022-12-29T11:35:29;1.40;;;0.83;;
11386;SDS011;5748;53.102;8.456;2022-12-29T11:38:01;2.20;;;0.87;;
11386;SDS011;5748;53.102;8.456;2022-12-29T11:40:30;1.90;;;0.87;;
11386;SDS011;5748;53.102;8.456;2022-12-29T11:43:04;1.40;;;0.83;;
11386;SDS011;5748;53.102;8.456;2022-12-29T11:45:33;1.17;;;0.73;;
11386;SDS011;5748;53.102;8.456;2022-12-29T11:48:05;1.53;;;0.80;;
11386;SDS011;5748;53.102;8.456;2022-12-29T11:50:39;1.33;;;0.80;;
11386;SDS011;5748;53.102;8.456;2022-12-29T11:53:13;1.03;;;0.70;;
11386;SDS011;5748;53.102;8.456;2022-12-29T11:55:50;1.93;;;0.93;;
11386;SDS011;5748;53.102;8.456;2022-12-29T11:58:19;1.20;;;0.80;;
11386;SDS011;5748;53.102;8.456;2022-12-29T12:00:46;1.17;;;0.60;;
11386;SDS011;5748;53.102;8.456;2022-12-29T12:03:17;0.97;;;0.80;;
11386;SDS011;5748;53.102;8.456;2022-12-29T12:05:47;1.63;;;0.80;;
11386;SDS011;5748;53.102;8.456;2022-12-29T12:08:20;2.13;;;0.73;;
11386;SDS011;5748;53.102;8.456;2022-12-29T12:10:57;2.03;;;1.03;;
11386;SDS011;5748;53.102;8.456;2022-12-29T12:13:33;1.67;;;0.80;;
11386;SDS011;5748;53.102;8.456;2022-12-29T12:16:06;0.77;;;0.70;;
11386;SDS011;5748;53.102;8.456;2022-12-29T12:18:40;1.03;;;0.70;;
11386;SDS011;5748;53.102;8.456;2022-12-29T12:21:23;2.17;;;0.83;;
11386;SDS011;5748;53.102;8.456;2022-12-29T12:24:04;1.57;;;0.87;;
11386;SDS011;5748;53.102;8.456;2022-12-29T12:26:52;1.77;;;0.67;;
11386;SDS011;5748;53.102;8.456;2022-12-29T12:29:25;1.73;;;0.70;;
11386;SDS011;5748;53.102;8.456;2022-12-29T12:32:01;2.60;;;0.80;;
11386;SDS011;5748;53.102;8.456;2022-12-29T12:34:38;0.80;;;0.60;;
11386;SDS011;5748;53.102;8.456;2022-12-29T12:37:15;1.23;;;0.70;;
11386;SDS011;5748;53.102;8.456;2022-12-29T12:40:11;1.47;;;0.70;;
11386;SDS011;5748;53.102;8.456;2022-12-29T12:43:08;1.27;;;0.90;;
11386;SDS011;5748;53.102;8.456;2022-12-29T12:45:50;1.20;;;0.70;;
11386;SDS011;5748;53.102;8.456;2022-12-29T12:48:37;1.57;;;1.00;;
11386;SDS011;5748;53.102;8.456;2022-12-29T12:51:27;2.43;;;1.30;;
11386;SDS011;5748;53.102;8.456;2022-12-29T12:54:07;2.37;;;1.10;;
11386;SDS011;5748;53.102;8.456;2022-12-29T12:57:00;2.00;;;0.80;;
11386;SDS011;5748;53.102;8.456;2022-12-29T12:59:43;1.30;;;0.80;;
11386;SDS011;5748;53.102;8.456;2022-12-29T13:02:29;1.90;;;0.93;;
11386;SDS011;5748;53.102;8.456;2022-12-29T13:08:16;2.67;;;0.90;;
11386;SDS011;5748;53.102;8.456;2022-12-29T13:10:59;1.17;;;0.60;;
11386;SDS011;5748;53.102;8.456;2022-12-29T13:13:42;1.17;;;0.80;;
11386;SDS011;5748;53.102;8.456;2022-12-29T13:16:31;1.17;;;0.80;;
11386;SDS011;5748;53.102;8.456;2022-12-29T13:19:08;1.17;;;0.70;;
11386;SDS011;5748;53.102;8.456;2022-12-29T13:21:45;1.20;;;0.77;;
11386;SDS011;5748;53.102;8.456;2022-12-29T13:24:27;1.17;;;0.70;;
11386;SDS011;5748;53.102;8.456;2022-12-29T13:27:08;0.90;;;0.60;;
11386;SDS011;5748;53.102;8.456;2022-12-29T13:29:46;0.70;;;0.60;;
11386;SDS011;5748;53.102;8.456;2022-12-29T13:32:23;1.03;;;0.87;;
11386;SDS011;5748;53.102;8.456;2022-12-29T13:35:04;2.27;;;0.90;;
11386;SDS011;5748;53.102;8.456;2022-12-29T13:37:47;1.43;;;0.73;;
11386;SDS011;5748;53.102;8.456;2022-12-29T13:40:21;1.23;;;0.70;;
11386;SDS011;5748;53.102;8.456;2022-12-29T13:42:52;1.47;;;0.77;;
11386;SDS011;5748;53.102;8.456;2022-12-29T13:45:22;1.03;;;0.70;;
11386;SDS011;5748;53.102;8.456;2022-12-29T13:47:53;2.07;;;1.07;;
11386;SDS011;5748;53.102;8.456;2022-12-29T13:50:26;1.10;;;0.67;;
11386;SDS011;5748;53.102;8.456;2022-12-29T13:52:59;1.17;;;0.70;;
11386;SDS011;5748;53.102;8.456;2022-12-29T13:55:35;2.07;;;0.80;;
11386;SDS011;5748;53.102;8.456;2022-12-29T13:58:09;1.83;;;0.80;;
11386;SDS011;5748;53.102;8.456;2022-12-29T14:00:48;1.50;;;0.93;;
11386;SDS011;5748;53.102;8.456;2022-12-29T14:03:40;2.57;;;1.00;;
11386;SDS011;5748;53.102;8.456;2022-12-29T14:06:22;1.00;;;0.70;;
11386;SDS011;5748;53.102;8.456;2022-12-29T14:08:52;1.53;;;0.80;;
11386;SDS011;5748;53.102;8.456;2022-12-29T14:11:22;1.77;;;0.90;;
11386;SDS011;5748;53.102;8.456;2022-12-29T14:13:56;1.47;;;0.77;;
11386;SDS011;5748;53.102;8.456;2022-12-29T14:16:29;1.30;;;0.70;;
11386;SDS011;5748;53.102;8.456;2022-12-29T14:19:06;0.83;;;0.70;;
11386;SDS011;5748;53.102;8.456;2022-12-29T14:21:40;1.60;;;0.90;;
11386;SDS011;5748;53.102;8.456;2022-12-29T14:24:27;1.00;;;0.90;;
11386;SDS011;5748;53.102;8.456;2022-12-29T14:33:18;1.60;;;0.80;;
11386;SDS011;5748;53.102;8.456;2022-12-29T14:35:47;1.33;;;0.80;;
11386;SDS011;5748;53.102;8.456;2022-12-29T14:38:27;1.43;;;0.90;;
11386;SDS011;5748;53.102;8.456;2022-12-29T14:43:57;2.47;;;1.00;;
11386;SDS011;5748;53.102;8.456;2022-12-29T14:46:55;1.47;;;0.90;;
11386;SDS011;5748;53.102;8.456;2022-12-29T14:49:27;1.60;;;1.10;;
11386;SDS011;5748;53.102;8.456;2022-12-29T14:52:04;0.80;;;0.73;;
11386;SDS011;5748;53.102;8.456;2022-12-29T14:54:43;2.03;;;1.20;;
11386;SDS011;5748;53.102;8.456;2022-12-29T14:57:20;2.67;;;2.10;;
11386;SDS011;5748;53.102;8.456;2022-12-29T15:00:08;3.17;;;2.27;;
11386;SDS011;5748;53.102;8.456;2022-12-29T15:02:46;2.50;;;1.77;;
11386;SDS011;5748;53.102;8.456;2022-12-29T15:08:09;2.53;;;1.30;;
11386;SDS011;5748;53.102;8.456;2022-12-29T15:10:40;2.47;;;1.40;;
11386;SDS011;5748;53.102;8.456;2022-12-29T15:13:15;2.83;;;1.33;;
11386;SDS011;5748;53.102;8.456;2022-12-29T15:15:48;3.27;;;1.70;;
11386;SDS011;5748;53.102;8.456;2022-12-29T15:18:22;2.40;;;1.80;;
11386;SDS011;5748;53.102;8.456;2022-12-29T15:20:54;2.50;;;1.70;;
11386;SDS011;5748;53.102;8.456;2022-12-29T15:23:24;1.53;;;1.23;;
11386;SDS011;5748;53.102;8.456;2022-12-29T15:25:53;1.93;;;1.40;;
11386;SDS011;5748;53.102;8.456;2022-12-29T15:28:22;2.00;;;1.23;;
11386;SDS011;5748;53.102;8.456;2022-12-29T15:30:51;2.00;;;1.20;;
11386;SDS011;5748;53.102;8.456;2022-12-29T15:33:21;1.53;;;1.20;;
11386;SDS011;5748;53.102;8.456;2022-12-29T15:35:50;2.07;;;1.30;;
11386;SDS011;5748;53.102;8.456;2022-12-29T15:38:21;1.60;;;1.20;;
11386;SDS011;5748;53.102;8.456;2022-12-29T15:40:52;1.37;;;1.10;;
11386;SDS011;5748;53.102;8.456;2022-12-29T15:43:28;1.77;;;1.03;;
11386;SDS011;5748;53.102;8.456;2022-12-29T15:46:17;1.37;;;1.00;;
11386;SDS011;5748;53.102;8.456;2022-12-29T15:48:44;1.40;;;1.20;;
11386;SDS011;5748;53.102;8.456;2022-12-29T15:51:15;2.50;;;1.40;;
11386;SDS011;5748;53.102;8.456;2022-12-29T15:53:48;2.40;;;1.50;;
11386;SDS011;5748;53.102;8.456;2022-12-29T15:56:18;2.37;;;1.60;;
11386;SDS011;5748;53.102;8.456;2022-12-29T15:58:46;2.17;;;1.77;;
11386;SDS011;5748;53.102;8.456;2022-12-29T16:01:16;2.40;;;1.50;;
11386;SDS011;5748;53.102;8.456;2022-12-29T16:03:46;2.53;;;1.70;;
11386;SDS011;5748;53.102;8.456;2022-12-29T16:06:30;2.33;;;1.63;;
11386;SDS011;5748;53.102;8.456;2022-12-29T16:09:02;3.80;;;1.90;;
11386;SDS011;5748;53.102;8.456;2022-12-29T16:11:32;1.73;;;1.20;;